createdAt,value
2024-01-11T04:39:39.179Z,-3.96
2024-01-11T04:42:42.370Z,-3.96
2024-01-11T04:45:45.090Z,-4.42
2024-01-11T04:48:50.111Z,-4.47
2024-01-11T04:51:52.708Z,-4.62
2024-01-11T04:54:55.767Z,-4.66
2024-01-11T04:57:58.561Z,-4.59
2024-01-11T05:01:01.687Z,-4.50
2024-01-11T05:04:04.594Z,-4.58
2024-01-11T05:07:07.418Z,-4.60
2024-01-11T05:10:12.657Z,-4.60
2024-01-11T05:13:15.556Z,-4.60
2024-01-11T05:16:28.893Z,-4.54
2024-01-11T05:19:31.754Z,-4.51
2024-01-11T05:22:34.666Z,-4.48
2024-01-11T05:25:37.901Z,-4.39
2024-01-11T05:28:43.227Z,-4.33
2024-01-11T05:31:46.888Z,-4.36
2024-01-11T05:34:49.468Z,-4.23
2024-01-11T05:37:52.123Z,-4.12
2024-01-11T05:40:55.100Z,-3.97
2024-01-11T05:43:58.252Z,-4.06
2024-01-11T05:47:00.769Z,-4.08
2024-01-11T05:50:04.050Z,-4.06
2024-01-11T05:53:07.083Z,-4.04
2024-01-11T05:56:10.951Z,-4.06
2024-01-11T05:59:13.734Z,-3.90
2024-01-11T06:02:16.563Z,-3.96
2024-01-11T06:05:19.406Z,-4.17
2024-01-11T06:08:25.362Z,-4.14
2024-01-11T06:11:29.351Z,-4.09
2024-01-11T06:14:31.935Z,-4.11
2024-01-11T06:17:35.247Z,-4.10
2024-01-11T06:20:37.899Z,-3.96
2024-01-11T06:23:40.686Z,-4.01
2024-01-11T06:26:43.485Z,-3.98
2024-01-11T06:29:47.017Z,-4.28
2024-01-11T06:32:49.761Z,-4.24
2024-01-11T06:35:53.014Z,-4.10
2024-01-11T06:38:55.819Z,-4.15
2024-01-11T06:41:58.798Z,-4.00
2024-01-11T06:45:02.325Z,-3.91
2024-01-11T06:48:05.798Z,-4.01
2024-01-11T06:51:09.226Z,-4.01
2024-01-11T06:54:12.285Z,-4.04
2024-01-11T06:57:15.949Z,-3.92
2024-01-11T07:00:19.179Z,-4.10
2024-01-11T07:03:22.073Z,-4.06
2024-01-11T07:06:25.318Z,-3.85
2024-01-11T07:09:28.025Z,-3.81
2024-01-11T07:12:30.833Z,-3.76
2024-01-11T07:15:33.557Z,-3.82
2024-01-11T07:18:36.637Z,-3.83
2024-01-11T07:21:39.127Z,-3.77
2024-01-11T07:24:42.272Z,-3.69
2024-01-11T07:27:44.919Z,-3.51
2024-01-11T07:30:48.005Z,-3.48
2024-01-11T07:36:54.225Z,-3.23
2024-01-11T07:39:56.744Z,-3.35
2024-01-11T07:43:00.460Z,-3.41
2024-01-11T07:46:04.629Z,-3.33
2024-01-11T07:49:07.928Z,-3.18
2024-01-11T07:52:10.926Z,-2.93
2024-01-11T07:55:14.335Z,-2.74
2024-01-11T07:58:17.102Z,-2.63
2024-01-11T08:01:20.800Z,-2.68
2024-01-11T08:04:23.595Z,-2.51
2024-01-11T08:07:27.386Z,-2.88
2024-01-11T08:10:34.024Z,-2.77
2024-01-11T08:13:38.982Z,-2.69
2024-01-11T08:16:41.853Z,-2.62
2024-01-11T08:19:44.702Z,-2.52
2024-01-11T08:22:48.244Z,-2.34
2024-01-11T08:25:50.729Z,-2.23
2024-01-11T08:28:54.771Z,-2.16
2024-01-11T08:31:57.623Z,-2.14
2024-01-11T08:35:00.714Z,-1.85
2024-01-11T08:38:04.315Z,-1.67
2024-01-11T08:41:07.843Z,-1.41
2024-01-11T08:44:10.577Z,-1.17
2024-01-11T08:47:13.675Z,-1.12
2024-01-11T08:50:18.417Z,-0.82
2024-01-11T08:53:22.796Z,-0.79
2024-01-11T08:56:26.587Z,-0.70
2024-01-11T08:59:29.995Z,-0.56
2024-01-11T09:02:32.911Z,-0.48
2024-01-11T09:05:35.923Z,-0.54
2024-01-11T09:08:38.423Z,-0.44
2024-01-11T09:11:41.681Z,-0.04
2024-01-11T09:14:44.806Z,-0.14
2024-01-11T09:17:47.931Z,-0.20
2024-01-11T09:20:50.995Z,-0.12
2024-01-11T09:23:53.822Z,-0.19
2024-01-11T09:26:56.839Z,-0.26
2024-01-11T09:29:59.846Z,-0.15
2024-01-11T09:33:02.678Z,-0.28
2024-01-11T09:36:06.070Z,-0.16
2024-01-11T09:39:09.500Z,-0.10
2024-01-11T09:42:13.151Z,-0.17
2024-01-11T09:45:17.978Z,-0.01
2024-01-11T09:48:22.602Z,0.10
2024-01-11T09:51:27.005Z,0.58
2024-01-11T09:54:29.760Z,0.73
2024-01-11T09:57:36.021Z,0.82
2024-01-11T10:00:39.798Z,0.98
2024-01-11T10:03:47.454Z,0.95
2024-01-11T10:06:52.295Z,1.18
2024-01-11T10:09:55.858Z,1.38
2024-01-11T10:12:58.627Z,1.39
2024-01-11T10:16:11.077Z,1.42
2024-01-11T10:19:16.981Z,1.46
2024-01-11T10:22:23.039Z,1.32
2024-01-11T10:25:28.235Z,1.48
2024-01-11T10:28:31.295Z,1.52
2024-01-11T10:31:35.957Z,1.47
2024-01-11T10:34:41.152Z,1.67
2024-01-11T10:37:47.730Z,1.64
2024-01-11T10:40:53.714Z,1.67
2024-01-11T10:43:59.082Z,1.71
2024-01-11T10:47:06.329Z,1.72
2024-01-11T10:50:11.612Z,1.62
2024-01-11T10:53:52.009Z,1.60
2024-01-11T10:56:56.631Z,1.70
2024-01-11T11:00:04.746Z,1.74
2024-01-11T11:03:08.408Z,1.70
2024-01-11T11:06:12.941Z,1.69
2024-01-11T11:09:17.213Z,1.79
2024-01-11T11:12:21.824Z,2.01
2024-01-11T11:15:25.414Z,2.01
2024-01-11T11:18:28.519Z,2.03
2024-01-11T11:21:32.094Z,1.95
2024-01-11T11:24:35.252Z,1.97
2024-01-11T11:27:38.293Z,2.13
2024-01-11T11:30:43.451Z,2.26
2024-01-11T11:33:46.131Z,2.22
2024-01-11T11:36:51.304Z,2.13
2024-01-11T11:39:53.699Z,2.12
2024-01-11T11:42:57.574Z,2.09
2024-01-11T11:46:08.601Z,2.17
2024-01-11T11:49:13.191Z,2.26
2024-01-11T11:52:17.823Z,2.30
2024-01-11T11:55:23.146Z,2.42
2024-01-11T11:58:25.741Z,2.34
2024-01-11T12:01:29.379Z,2.42
2024-01-11T12:04:32.098Z,2.40
2024-01-11T12:07:34.842Z,2.40
2024-01-11T12:10:37.550Z,2.35
2024-01-11T12:13:41.328Z,2.44
2024-01-11T12:16:44.309Z,2.39
2024-01-11T12:19:47.149Z,2.48
2024-01-11T12:22:50.146Z,2.48
2024-01-11T12:25:53.192Z,2.56
2024-01-11T12:28:56.313Z,2.69
2024-01-11T12:32:02.125Z,2.80
2024-01-11T12:35:06.307Z,2.73
2024-01-11T12:38:10.472Z,2.72
2024-01-11T12:41:14.036Z,2.83
2024-01-11T12:44:18.568Z,2.92
2024-01-11T12:47:24.645Z,3.21
2024-01-11T12:50:33.993Z,3.16
2024-01-11T12:53:37.124Z,3.32
2024-01-11T12:56:46.026Z,3.40
2024-01-11T12:59:49.595Z,3.46
2024-01-11T13:02:55.079Z,3.63
2024-01-11T13:05:58.448Z,3.14
2024-01-11T13:09:02.335Z,3.05
2024-01-11T13:12:05.868Z,3.01
2024-01-11T13:15:08.711Z,2.97
2024-01-11T13:18:11.634Z,2.90
2024-01-11T13:21:14.756Z,3.03
2024-01-11T13:24:17.766Z,3.12
2024-01-11T13:27:20.487Z,3.14
2024-01-11T13:30:23.191Z,3.12
2024-01-11T13:33:25.922Z,2.97
2024-01-11T13:36:29.013Z,3.16
2024-01-11T13:39:31.552Z,3.36
2024-01-11T13:42:34.268Z,3.25
2024-01-11T13:45:37.868Z,3.16
2024-01-11T13:48:41.188Z,2.96
2024-01-11T13:51:53.351Z,3.37
2024-01-11T13:55:01.486Z,3.19
2024-01-11T13:58:04.864Z,3.22
2024-01-11T14:01:08.805Z,2.76
2024-01-11T14:04:11.837Z,2.60
2024-01-11T14:07:17.115Z,2.33
2024-01-11T14:10:20.267Z,2.26
2024-01-11T14:13:23.012Z,2.26
2024-01-11T14:16:28.090Z,2.17
2024-01-11T14:19:30.812Z,2.10
2024-01-11T14:22:33.883Z,2.11
2024-01-11T14:25:36.649Z,2.14
2024-01-11T14:28:43.684Z,2.13
2024-01-11T14:31:46.811Z,1.91
2024-01-11T14:34:50.451Z,1.87
2024-01-11T14:37:54.366Z,2.03
2024-01-11T14:40:57.832Z,1.95
2024-01-11T14:44:01.267Z,1.94
2024-01-11T14:47:04.993Z,1.90
2024-01-11T14:50:11.266Z,1.80
2024-01-11T14:53:15.226Z,1.85
2024-01-11T14:56:18.171Z,1.89
2024-01-11T14:59:21.640Z,1.86
2024-01-11T15:02:24.106Z,1.78
2024-01-11T15:05:27.220Z,1.78
2024-01-11T15:08:30.716Z,1.79
2024-01-11T15:11:37.170Z,1.81
2024-01-11T15:14:42.044Z,1.76
2024-01-11T15:17:45.887Z,1.76
2024-01-11T15:20:48.804Z,1.73
2024-01-11T15:23:51.687Z,1.60
2024-01-11T15:26:54.897Z,1.51
2024-01-11T15:29:58.156Z,1.48
2024-01-11T15:33:02.300Z,1.55
2024-01-11T15:36:06.306Z,1.55
2024-01-11T15:39:20.436Z,1.50
2024-01-11T15:42:29.635Z,1.39
2024-01-11T15:45:34.443Z,1.39
2024-01-11T15:48:37.773Z,1.47
2024-01-11T15:51:40.322Z,1.55
2024-01-11T15:54:43.013Z,1.52
2024-01-11T15:57:45.431Z,1.42
2024-01-11T16:00:48.771Z,1.42
2024-01-11T16:03:53.330Z,1.27
2024-01-11T16:06:56.332Z,1.26
2024-01-11T16:09:59.661Z,1.42
2024-01-11T16:13:03.232Z,1.54
2024-01-11T16:16:06.229Z,1.45
2024-01-11T16:19:08.772Z,1.41
2024-01-11T16:22:11.781Z,1.38
2024-01-11T16:25:14.658Z,1.41
2024-01-11T16:28:17.386Z,1.27
2024-01-11T16:31:20.622Z,1.13
2024-01-11T16:34:23.450Z,0.96
2024-01-11T16:37:25.958Z,1.08
2024-01-11T16:40:29.524Z,1.05
2024-01-11T16:43:52.797Z,1.03
2024-01-11T16:46:55.647Z,1.07
